Time;durP1;ratioP1;P1;durP2;ratioP2;P2;SDS_P1;SDS_P2;PMS_P1;PMS_P2;Temp;Humidity;BMP_temperature;BMP_pressure;BME280_temperature;BME280_humidity;BME280_pressure;Samples;Min_cycle;Max_cycle;Signal;HPM_P1;HPM_P2
2022/09/19 00:01:14;;;;;;;3.80;1.80;;;8.40;99.90;;;;;;4214808;28;20462;-78
2022/09/19 00:03:15;;;;;;;4.27;2.10;;;8.40;99.90;;;;;;4213628;28;20486;-78
2022/09/19 00:05:17;;;;;;;4.47;1.93;;;8.40;99.90;;;;;;4213522;28;20542;-78
2022/09/19 00:07:19;;;;;;;4.97;2.10;;;8.40;99.90;;;;;;4214024;28;20538;-78
2022/09/19 00:09:23;;;;;;;6.87;2.50;;;8.40;99.90;;;;;;4217069;28;20464;-77
2022/09/19 00:11:26;;;;;;;4.57;2.37;;;8.40;99.90;;;;;;4216755;28;20477;-78
2022/09/19 00:13:28;;;;;;;3.37;2.00;;;8.40;99.90;;;;;;4213941;28;20478;-78
2022/09/19 00:15:33;;;;;;;4.20;2.33;;;8.40;99.90;;;;;;4214640;28;20471;-78
2022/09/19 00:17:36;;;;;;;6.57;2.13;;;8.40;99.90;;;;;;4216270;28;20490;-77
2022/09/19 00:19:38;;;;;;;5.40;1.90;;;8.40;99.90;;;;;;4215643;28;20450;-78
2022/09/19 00:21:43;;;;;;;3.57;2.00;;;8.50;99.90;;;;;;4216536;28;20465;-78
2022/09/19 00:26:06;;;;;;;3.20;2.50;;;8.40;99.90;;;;;;4216390;28;20443;-78
2022/09/19 00:28:08;;;;;;;3.63;2.43;;;8.40;99.90;;;;;;4217046;28;20493;-78
2022/09/19 00:30:11;;;;;;;5.60;2.60;;;8.40;99.90;;;;;;4193834;28;20823;-78
2022/09/19 00:32:15;;;;;;;6.23;2.97;;;8.40;99.90;;;;;;4215774;28;20455;-78
2022/09/19 00:34:19;;;;;;;5.70;3.80;;;8.40;99.90;;;;;;4214255;28;21964;-78
2022/09/19 00:36:21;;;;;;;5.13;3.80;;;8.50;99.90;;;;;;4217600;28;20469;-78
2022/09/19 00:38:25;;;;;;;6.70;4.00;;;8.50;99.90;;;;;;4219660;28;20491;-78
2022/09/19 00:40:27;;;;;;;5.50;3.93;;;8.50;99.90;;;;;;4220653;28;20497;-78
2022/09/19 00:42:29;;;;;;;7.43;4.10;;;8.40;99.90;;;;;;4220688;28;21064;-78
2022/09/19 00:45:05;;;;;;;5.70;3.50;;;8.50;99.90;;;;;;4224060;28;20475;-78
2022/09/19 00:47:11;;;;;;;4.50;3.70;;;8.50;99.90;;;;;;4187389;28;20947;-78
2022/09/19 00:49:14;;;;;;;5.07;3.27;;;8.50;99.90;;;;;;4190596;28;20544;-78
2022/09/19 00:51:23;;;;;;;4.90;3.20;;;8.50;99.90;;;;;;4185216;28;20449;-78
2022/09/19 00:53:26;;;;;;;3.17;2.70;;;8.50;99.90;;;;;;4217927;28;20471;-78
2022/09/19 00:55:29;;;;;;;8.07;2.80;;;8.50;99.90;;;;;;4217665;28;20470;-78
2022/09/19 00:57:39;;;;;;;4.97;2.70;;;8.50;99.90;;;;;;4216116;28;20471;-78
2022/09/19 00:59:44;;;;;;;7.10;2.70;;;8.50;99.90;;;;;;4198496;28;20498;-78
2022/09/19 01:01:47;;;;;;;7.37;2.47;;;8.60;99.90;;;;;;4190027;28;20531;-78
2022/09/19 01:03:49;;;;;;;7.43;3.00;;;8.50;99.90;;;;;;4220147;28;20521;-78
2022/09/19 01:06:00;;;;;;;5.73;2.47;;;8.60;99.90;;;;;;4202027;28;21066;-79
2022/09/19 01:08:16;;;;;;;8.13;2.43;;;8.60;99.90;;;;;;4218793;28;20986;-78
2022/09/19 01:10:34;;;;;;;3.70;2.53;;;8.60;99.90;;;;;;4220179;28;20467;-78
2022/09/19 01:12:47;;;;;;;4.10;2.37;;;8.60;99.90;;;;;;4222230;28;20819;-79
2022/09/19 01:15:12;;;;;;;3.50;2.27;;;8.60;99.90;;;;;;4221325;28;20887;-78
2022/09/19 01:17:20;;;;;;;4.43;2.77;;;8.60;99.90;;;;;;4218247;28;20563;-78
2022/09/19 01:19:47;;;;;;;3.67;2.60;;;8.60;99.90;;;;;;4217429;28;20979;-78
2022/09/19 01:22:01;;;;;;;9.20;2.70;;;8.60;99.90;;;;;;4215835;28;20450;-78
2022/09/19 01:24:40;;;;;;;5.63;2.70;;;8.60;99.90;;;;;;4217598;28;20927;-78
2022/09/19 01:27:01;;;;;;;10.30;3.00;;;8.60;99.90;;;;;;4197164;28;20452;-78
2022/09/19 01:29:09;;;;;;;7.13;3.50;;;8.60;99.90;;;;;;4195764;28;20451;-79
2022/09/19 01:31:18;;;;;;;3.13;2.33;;;8.60;99.90;;;;;;4196758;28;20476;-78
2022/09/19 01:33:21;;;;;;;6.27;2.80;;;8.60;99.90;;;;;;4214228;28;20495;-79
2022/09/19 01:35:28;;;;;;;5.40;2.70;;;8.60;99.90;;;;;;4196865;28;21233;-79
2022/09/19 01:37:34;;;;;;;8.13;2.80;;;8.60;99.90;;;;;;4212471;28;20579;-78
2022/09/19 01:39:39;;;;;;;7.90;3.20;;;8.60;99.90;;;;;;4209783;28;20839;-79
2022/09/19 01:41:48;;;;;;;6.47;3.17;;;8.70;99.90;;;;;;4210801;28;20494;-79
2022/09/19 01:43:51;;;;;;;6.27;3.10;;;8.60;99.90;;;;;;4209684;28;20534;-79
2022/09/19 01:46:00;;;;;;;5.40;2.70;;;8.60;99.90;;;;;;4193608;28;20448;-78
2022/09/19 01:48:10;;;;;;;4.37;3.00;;;8.70;99.90;;;;;;4209346;28;20903;-78
2022/09/19 01:50:19;;;;;;;4.90;2.77;;;8.70;99.90;;;;;;4193910;28;20536;-79
2022/09/19 01:52:34;;;;;;;7.07;3.37;;;8.70;99.90;;;;;;4194538;28;20455;-79
2022/09/19 01:54:48;;;;;;;6.20;3.57;;;8.70;99.90;;;;;;4211936;28;20784;-79
2022/09/19 01:57:01;;;;;;;10.17;3.87;;;8.70;99.90;;;;;;4210250;28;20889;-79
2022/09/19 01:59:16;;;;;;;7.53;3.70;;;8.70;99.90;;;;;;4186810;28;20835;-79
2022/09/19 02:01:26;;;;;;;7.67;3.83;;;8.70;99.90;;;;;;4211795;28;20812;-79
2022/09/19 02:03:38;;;;;;;8.07;4.10;;;8.70;99.90;;;;;;4211153;28;20478;-79
2022/09/19 02:05:49;;;;;;;8.10;4.17;;;8.70;99.90;;;;;;4211339;28;20561;-79
2022/09/19 02:08:00;;;;;;;8.80;4.63;;;8.70;99.90;;;;;;4184294;28;20486;-79
2022/09/19 02:10:07;;;;;;;6.67;4.10;;;8.80;99.90;;;;;;4211443;28;20451;-79
2022/09/19 02:12:12;;;;;;;7.77;4.30;;;8.70;99.90;;;;;;4211860;28;20473;-79
2022/09/19 02:14:18;;;;;;;10.43;5.07;;;8.80;99.90;;;;;;4192043;28;20538;-78
2022/09/19 02:16:29;;;;;;;12.13;5.00;;;8.70;99.90;;;;;;4210212;28;20522;-79
2022/09/19 02:18:35;;;;;;;12.33;4.93;;;8.80;99.90;;;;;;4209403;28;20523;-79
2022/09/19 02:20:41;;;;;;;12.67;4.90;;;8.80;99.90;;;;;;4212067;28;20542;-79
2022/09/19 02:22:48;;;;;;;10.23;4.90;;;8.80;99.90;;;;;;4194184;28;20466;-79
2022/09/19 02:24:56;;;;;;;10.97;5.23;;;8.80;99.90;;;;;;4212026;28;20482;-79
2022/09/19 02:27:09;;;;;;;11.67;5.83;;;8.80;99.90;;;;;;4211621;28;20442;-79
2022/09/19 02:29:14;;;;;;;14.33;5.87;;;8.80;99.90;;;;;;4210795;28;20553;-79
2022/09/19 02:31:16;;;;;;;8.13;5.00;;;8.80;99.90;;;;;;4208566;28;20451;-79
2022/09/19 02:33:19;;;;;;;8.97;4.77;;;8.80;99.90;;;;;;4212565;28;20560;-79
2022/09/19 02:35:34;;;;;;;8.60;4.67;;;8.90;99.90;;;;;;4213554;28;20472;-78
2022/09/19 02:37:46;;;;;;;11.93;4.80;;;8.90;99.90;;;;;;4200766;28;20478;-79
2022/09/19 02:39:55;;;;;;;13.27;5.60;;;8.90;99.90;;;;;;4214427;28;20459;-79
2022/09/19 02:42:03;;;;;;;8.20;4.90;;;8.80;99.90;;;;;;4214582;28;20441;-79
2022/09/19 02:44:19;;;;;;;9.40;4.90;;;8.90;99.90;;;;;;4196218;28;20622;-79
2022/09/19 02:46:26;;;;;;;8.53;5.17;;;8.90;99.90;;;;;;4196360;28;20482;-78
2022/09/19 02:48:36;;;;;;;8.43;5.17;;;8.90;99.90;;;;;;4214981;28;20435;-78
2022/09/19 02:50:43;;;;;;;14.10;5.20;;;8.90;99.90;;;;;;4189305;28;20587;-78
2022/09/19 02:52:48;;;;;;;11.13;5.47;;;8.90;99.90;;;;;;4218288;28;20446;-79
2022/09/19 02:54:57;;;;;;;10.73;5.53;;;8.90;99.90;;;;;;4215775;28;20451;-78
2022/09/19 02:57:04;;;;;;;14.07;5.10;;;8.90;99.90;;;;;;4201530;28;20452;-79
2022/09/19 02:59:09;;;;;;;8.77;4.77;;;8.90;99.90;;;;;;4221846;28;20504;-79
2022/09/19 03:01:16;;;;;;;10.27;4.57;;;8.90;99.90;;;;;;4221279;28;20477;-79
2022/09/19 03:05:45;;;;;;;8.93;4.67;;;8.90;99.90;;;;;;4214799;28;20451;-78
2022/09/19 03:07:53;;;;;;;9.67;5.00;;;8.90;99.90;;;;;;4214945;28;20443;-78
2022/09/19 03:10:03;;;;;;;7.73;4.90;;;8.90;99.90;;;;;;4215426;28;21100;-78
2022/09/19 03:12:11;;;;;;;9.37;5.63;;;8.90;99.90;;;;;;4214936;28;20447;-78
2022/09/19 03:14:13;;;;;;;8.30;4.57;;;8.90;99.90;;;;;;4214968;28;20469;-79
2022/09/19 03:16:19;;;;;;;7.47;4.03;;;8.90;99.90;;;;;;4214429;28;20449;-78
2022/09/19 03:18:22;;;;;;;8.43;4.87;;;8.90;99.90;;;;;;4214978;28;20293;-78
2022/09/19 03:20:24;;;;;;;13.67;5.40;;;8.90;99.90;;;;;;4219087;28;20470;-78
2022/09/19 03:22:27;;;;;;;10.03;5.23;;;8.90;99.90;;;;;;4208178;28;20805;-78
2022/09/19 03:24:29;;;;;;;11.40;5.40;;;8.90;99.90;;;;;;4226852;28;20481;-79
2022/09/19 03:26:34;;;;;;;8.50;4.97;;;8.80;99.90;;;;;;4222228;28;21027;-78
2022/09/19 03:28:35;;;;;;;13.00;5.03;;;8.90;99.90;;;;;;4196934;28;20459;-78
2022/09/19 03:30:37;;;;;;;10.13;5.10;;;8.90;99.90;;;;;;4215270;28;20455;-79
2022/09/19 03:32:41;;;;;;;10.90;5.50;;;8.90;99.90;;;;;;4215150;28;20520;-78
2022/09/19 03:34:43;;;;;;;11.93;5.07;;;8.90;99.90;;;;;;4196301;28;20462;-78
2022/09/19 03:36:45;;;;;;;11.30;5.53;;;8.90;99.90;;;;;;4217988;28;20493;-78
2022/09/19 03:38:48;;;;;;;11.27;5.20;;;8.90;99.90;;;;;;4193980;28;20567;-78
2022/09/19 03:40:50;;;;;;;11.87;5.20;;;8.90;99.90;;;;;;4190436;28;20445;-79
2022/09/19 03:42:52;;;;;;;11.90;5.13;;;8.90;99.90;;;;;;4214594;28;20453;-79
2022/09/19 03:44:55;;;;;;;11.30;5.30;;;9.00;99.90;;;;;;4214145;28;20461;-78
2022/09/19 03:46:57;;;;;;;9.87;5.30;;;8.90;99.90;;;;;;4213510;28;20828;-79
2022/09/19 03:49:00;;;;;;;9.93;5.20;;;9.00;99.90;;;;;;4212140;28;20471;-78
2022/09/19 03:51:01;;;;;;;9.27;5.10;;;8.90;99.90;;;;;;4213945;28;20443;-78
2022/09/19 03:53:03;;;;;;;11.27;5.53;;;9.00;99.90;;;;;;4214218;28;20477;-78
2022/09/19 03:55:07;;;;;;;10.10;5.03;;;9.00;99.90;;;;;;4213215;28;20463;-78
2022/09/19 03:57:10;;;;;;;14.10;5.63;;;9.00;99.90;;;;;;4215363;28;20541;-78
2022/09/19 03:59:12;;;;;;;15.60;5.60;;;9.00;99.90;;;;;;4216085;28;20524;-78
2022/09/19 04:01:15;;;;;;;11.70;5.37;;;8.90;99.90;;;;;;4217206;28;20563;-78
2022/09/19 04:03:18;;;;;;;10.43;5.10;;;9.00;99.90;;;;;;4205503;28;20494;-78
2022/09/19 04:05:20;;;;;;;9.67;4.63;;;9.00;99.90;;;;;;4223762;28;20459;-78
2022/09/19 04:07:22;;;;;;;10.33;5.10;;;9.00;99.90;;;;;;4208726;28;20464;-78
2022/09/19 04:09:25;;;;;;;15.03;7.03;;;9.00;99.90;;;;;;4221074;28;20197;-78
2022/09/19 04:11:29;;;;;;;12.23;5.83;;;9.00;99.90;;;;;;4195452;28;20456;-79
2022/09/19 04:13:33;;;;;;;15.17;6.27;;;9.00;99.90;;;;;;4216431;28;20486;-79
2022/09/19 04:15:35;;;;;;;11.53;5.47;;;9.00;99.90;;;;;;4217206;28;20438;-78
2022/09/19 04:17:37;;;;;;;10.70;5.17;;;9.00;99.90;;;;;;4196223;28;20560;-79
2022/09/19 04:19:39;;;;;;;15.47;5.50;;;9.00;99.90;;;;;;4212395;28;20485;-78
2022/09/19 04:21:41;;;;;;;12.47;5.30;;;9.00;99.90;;;;;;4213489;28;20458;-79
2022/09/19 04:23:44;;;;;;;10.70;5.90;;;9.00;99.90;;;;;;4212830;28;20239;-78
2022/09/19 04:25:46;;;;;;;12.80;6.30;;;9.00;99.90;;;;;;4195000;28;20206;-78
2022/09/19 04:27:52;;;;;;;15.23;6.33;;;9.00;99.90;;;;;;4195453;28;20460;-79
2022/09/19 04:29:55;;;;;;;14.00;6.10;;;9.00;99.90;;;;;;4195098;28;20452;-79
2022/09/19 04:32:02;;;;;;;9.23;5.07;;;9.00;99.90;;;;;;4195913;22;20527;-84
2022/09/19 04:34:04;;;;;;;12.03;5.30;;;9.00;99.90;;;;;;4142405;28;20550;-84
2022/09/19 04:36:08;;;;;;;12.77;5.73;;;9.00;99.90;;;;;;4212551;28;20494;-83
2022/09/19 04:38:12;;;;;;;12.40;6.40;;;9.00;99.90;;;;;;4220798;27;20495;-83
2022/09/19 04:40:14;;;;;;;10.17;5.33;;;9.00;99.90;;;;;;4227222;28;20961;-83
2022/09/19 04:42:16;;;;;;;14.83;5.97;;;9.00;99.90;;;;;;4223157;28;20561;-82
2022/09/19 04:44:22;;;;;;;17.17;7.20;;;9.00;99.90;;;;;;4226782;28;20450;-82
2022/09/19 04:46:23;;;;;;;15.43;6.40;;;8.90;99.90;;;;;;4211807;28;20443;-83
2022/09/19 04:48:25;;;;;;;14.50;6.60;;;9.00;99.90;;;;;;4221417;28;20907;-82
2022/09/19 04:50:27;;;;;;;15.10;6.90;;;9.00;99.90;;;;;;4204635;28;20451;-79
2022/09/19 04:52:29;;;;;;;15.07;7.03;;;9.00;99.90;;;;;;4199782;28;20913;-79
2022/09/19 04:54:35;;;;;;;15.30;6.83;;;9.00;99.90;;;;;;4194214;28;20501;-85
2022/09/19 04:56:38;;;;;;;13.77;6.37;;;9.00;99.90;;;;;;4197481;28;20968;-77
2022/09/19 04:58:40;;;;;;;15.93;7.30;;;9.00;99.90;;;;;;4215285;28;20501;-78
2022/09/19 05:00:45;;;;;;;14.53;7.20;;;9.00;99.90;;;;;;4201392;28;20725;-80
2022/09/19 05:02:53;;;;;;;17.43;7.23;;;9.10;99.90;;;;;;4204879;28;20471;-83
2022/09/19 05:04:55;;;;;;;17.13;7.57;;;9.00;99.90;;;;;;4216168;28;20464;-81
2022/09/19 05:06:57;;;;;;;13.10;6.73;;;9.10;99.90;;;;;;4216704;28;20505;-80
2022/09/19 05:08:59;;;;;;;17.07;7.53;;;9.00;99.90;;;;;;4209692;28;20463;-83
2022/09/19 05:11:03;;;;;;;13.13;6.80;;;9.10;99.90;;;;;;4204096;28;20849;-81
2022/09/19 05:13:05;;;;;;;17.03;7.53;;;9.10;99.90;;;;;;4220846;28;20523;-81
2022/09/19 05:15:08;;;;;;;12.70;7.00;;;9.00;99.90;;;;;;4221168;28;20528;-85
2022/09/19 05:17:12;;;;;;;14.37;6.83;;;9.00;99.90;;;;;;4221670;28;20461;-79
2022/09/19 05:19:14;;;;;;;14.97;7.00;;;9.00;99.90;;;;;;4201002;28;20483;-80
2022/09/19 05:21:16;;;;;;;13.07;6.67;;;9.10;99.90;;;;;;4222710;28;20946;-79
2022/09/19 05:23:18;;;;;;;14.83;7.40;;;9.10;99.90;;;;;;4196515;28;20546;-79
2022/09/19 05:25:20;;;;;;;16.60;7.57;;;9.00;99.90;;;;;;4218420;28;20451;-80
2022/09/19 05:27:22;;;;;;;18.07;7.73;;;9.10;99.90;;;;;;4214129;28;20452;-80
2022/09/19 05:29:24;;;;;;;14.47;7.23;;;9.10;99.90;;;;;;4212084;28;20482;-80
2022/09/19 05:31:26;;;;;;;16.23;7.33;;;9.10;99.90;;;;;;4124886;28;20484;-81
2022/09/19 05:33:29;;;;;;;12.27;7.23;;;9.00;99.90;;;;;;4119813;28;20459;-81
2022/09/19 05:35:32;;;;;;;12.03;6.70;;;9.10;99.90;;;;;;4221033;28;20526;-80
2022/09/19 05:37:34;;;;;;;15.83;7.90;;;9.10;99.90;;;;;;4197182;28;20452;-80
2022/09/19 05:39:36;;;;;;;14.93;7.93;;;9.10;99.90;;;;;;4204062;28;20212;-80
2022/09/19 05:41:39;;;;;;;16.40;7.00;;;9.30;99.90;;;;;;4203459;28;20980;-80
2022/09/19 05:43:41;;;;;;;15.90;7.13;;;9.20;99.90;;;;;;4214915;28;20200;-81
2022/09/19 05:45:42;;;;;;;11.37;6.23;;;9.20;99.90;;;;;;4198670;28;20981;-81
2022/09/19 05:47:45;;;;;;;13.17;6.07;;;9.20;99.90;;;;;;4199786;28;20968;-82
2022/09/19 05:49:48;;;;;;;9.50;4.93;;;9.30;99.90;;;;;;4200814;28;20544;-80
2022/09/19 05:51:54;;;;;;;9.30;4.90;;;9.20;99.90;;;;;;4200979;28;20233;-80
2022/09/19 05:53:56;;;;;;;13.03;4.90;;;9.30;99.90;;;;;;4202018;28;20906;-81
2022/09/19 05:55:57;;;;;;;9.33;4.50;;;9.20;99.90;;;;;;4225730;28;20201;-81
2022/09/19 05:57:59;;;;;;;6.87;4.60;;;9.30;99.90;;;;;;4227448;28;20479;-83
2022/09/19 06:00:02;;;;;;;6.47;4.27;;;9.20;99.90;;;;;;4124770;28;20860;-83
2022/09/19 06:02:05;;;;;;;6.23;4.50;;;9.20;99.90;;;;;;4139749;28;20296;-86
2022/09/19 06:04:07;;;;;;;7.33;4.07;;;9.20;99.90;;;;;;4161946;28;20452;-84
2022/09/19 06:06:13;;;;;;;7.90;4.37;;;9.20;99.90;;;;;;4127572;28;20484;-85
2022/09/19 06:08:16;;;;;;;6.93;4.00;;;9.20;99.90;;;;;;4126089;28;20452;-82
2022/09/19 06:10:18;;;;;;;4.70;3.57;;;9.20;99.90;;;;;;4145398;28;20231;-82
2022/09/19 06:12:20;;;;;;;4.53;3.23;;;9.30;99.90;;;;;;4129392;28;20487;-81
2022/09/19 06:14:23;;;;;;;5.77;3.10;;;9.30;99.90;;;;;;4134820;28;20908;-81
2022/09/19 06:16:25;;;;;;;5.67;3.30;;;9.30;99.90;;;;;;4136180;28;20665;-82
2022/09/19 06:18:27;;;;;;;4.10;3.00;;;9.30;99.90;;;;;;4121509;28;20236;-82
2022/09/19 06:20:29;;;;;;;6.47;3.00;;;9.30;99.90;;;;;;4129251;28;20460;-81
2022/09/19 06:22:32;;;;;;;4.73;2.87;;;9.40;99.90;;;;;;4126440;28;20932;-80
2022/09/19 06:24:34;;;;;;;3.00;2.40;;;9.40;99.90;;;;;;4119671;28;20217;-80
2022/09/19 06:26:36;;;;;;;5.27;2.93;;;9.50;99.90;;;;;;4136550;28;20461;-81
2022/09/19 06:28:39;;;;;;;4.60;3.00;;;9.40;99.90;;;;;;4137464;28;20844;-80
2022/09/19 06:30:42;;;;;;;5.30;3.17;;;9.40;99.90;;;;;;4134513;28;20212;-80
2022/09/19 06:32:44;;;;;;;5.40;2.93;;;9.40;99.90;;;;;;4117021;28;20273;-80
2022/09/19 06:34:46;;;;;;;4.23;2.80;;;9.40;99.90;;;;;;4137818;28;20647;-83
2022/09/19 06:36:48;;;;;;;6.60;3.40;;;9.40;99.90;;;;;;4136073;28;20688;-82
2022/09/19 06:38:51;;;;;;;9.47;3.20;;;9.50;99.90;;;;;;4223442;28;20217;-82
2022/09/19 06:40:53;;;;;;;4.00;2.90;;;9.50;99.90;;;;;;4114542;28;20727;-81
2022/09/19 06:43:01;;;;;;;8.30;4.80;;;9.60;99.90;;;;;;4139956;28;20531;-81
2022/09/19 06:45:05;;;;;;;12.27;6.50;;;9.60;99.90;;;;;;4138157;28;20460;-82
2022/09/19 06:47:07;;;;;;;12.90;6.83;;;9.60;99.90;;;;;;4141550;28;20447;-80
2022/09/19 06:49:09;;;;;;;14.37;7.33;;;9.70;99.90;;;;;;4221433;28;20547;-80
2022/09/19 06:51:13;;;;;;;15.93;8.50;;;9.80;99.90;;;;;;4225476;28;20268;-82
2022/09/19 06:53:16;;;;;;;18.83;10.00;;;9.70;99.90;;;;;;4199724;28;20681;-81
2022/09/19 06:55:19;;;;;;;20.47;9.40;;;9.80;99.90;;;;;;4222554;28;20230;-81
2022/09/19 06:57:21;;;;;;;21.23;9.83;;;9.80;99.90;;;;;;4201671;28;20228;-81
2022/09/19 06:59:23;;;;;;;20.23;11.43;;;9.80;99.90;;;;;;4214425;28;20596;-78
2022/09/19 07:01:26;;;;;;;21.03;10.67;;;9.90;99.90;;;;;;4204646;28;20205;-81
2022/09/19 07:03:28;;;;;;;20.47;10.67;;;10.20;99.90;;;;;;4136396;28;20677;-81
2022/09/19 07:05:32;;;;;;;21.90;11.97;;;10.00;99.90;;;;;;4132065;28;20216;-82
2022/09/19 07:07:33;;;;;;;24.17;12.90;;;10.00;99.90;;;;;;4133503;28;20243;-80
2022/09/19 07:09:35;;;;;;;26.70;13.83;;;10.00;99.90;;;;;;4137568;28;20197;-81
2022/09/19 07:11:39;;;;;;;36.67;15.57;;;10.00;99.90;;;;;;4117248;28;20219;-81
2022/09/19 07:13:40;;;;;;;28.03;14.77;;;10.00;99.90;;;;;;4140348;28;20221;-82
2022/09/19 07:15:42;;;;;;;30.63;15.20;;;10.00;99.90;;;;;;4105772;28;20276;-82
2022/09/19 07:17:44;;;;;;;29.27;16.03;;;10.10;99.90;;;;;;4130172;28;20725;-82
2022/09/19 07:19:46;;;;;;;34.07;16.27;;;10.10;99.90;;;;;;4119008;28;20250;-82
2022/09/19 07:21:48;;;;;;;32.20;16.70;;;10.10;99.90;;;;;;4221345;28;20248;-82
2022/09/19 07:23:50;;;;;;;31.40;15.53;;;10.10;99.90;;;;;;4208118;28;20215;-82
2022/09/19 07:25:55;;;;;;;32.27;16.33;;;10.10;99.90;;;;;;4184972;28;20208;-82
2022/09/19 07:28:01;;;;;;;40.00;17.43;;;10.10;99.90;;;;;;4201644;28;20639;-81
2022/09/19 07:30:03;;;;;;;37.00;17.17;;;10.10;99.90;;;;;;4222325;28;20277;-81
2022/09/19 07:32:05;;;;;;;29.80;15.93;;;10.10;99.90;;;;;;4215368;28;20268;-80
2022/09/19 07:34:07;;;;;;;30.83;16.00;;;10.10;99.90;;;;;;4205081;28;20293;-81
2022/09/19 07:36:10;;;;;;;31.67;16.10;;;10.10;99.90;;;;;;4200478;28;20245;-81
2022/09/19 07:38:13;;;;;;;30.40;15.80;;;10.10;99.90;;;;;;4201895;28;20208;-81
2022/09/19 07:40:15;;;;;;;28.03;15.27;;;10.10;99.90;;;;;;4224294;28;20226;-80
2022/09/19 07:42:20;;;;;;;29.83;14.43;;;10.10;99.90;;;;;;4222434;28;20313;-80
2022/09/19 07:44:23;;;;;;;28.77;13.57;;;10.20;99.90;;;;;;4208694;28;20203;-81
2022/09/19 07:46:26;;;;;;;33.27;14.57;;;10.10;99.90;;;;;;4232092;28;20195;-81
2022/09/19 07:48:28;;;;;;;24.87;12.50;;;10.20;99.90;;;;;;4237216;28;20219;-81
2022/09/19 07:50:30;;;;;;;26.37;12.50;;;10.20;99.90;;;;;;4208781;28;20262;-81
2022/09/19 07:52:32;;;;;;;26.37;13.50;;;10.20;99.90;;;;;;4234606;28;20217;-79
2022/09/19 07:54:34;;;;;;;25.47;12.57;;;10.20;99.90;;;;;;4234039;28;20665;-81
2022/09/19 07:56:36;;;;;;;25.60;12.60;;;10.20;99.90;;;;;;4237686;28;20252;-80
2022/09/19 07:58:38;;;;;;;23.47;12.17;;;10.20;99.90;;;;;;4230741;28;20733;-80
2022/09/19 08:00:41;;;;;;;24.83;11.80;;;10.30;99.90;;;;;;4228701;28;20228;-81
2022/09/19 08:02:43;;;;;;;26.93;13.23;;;10.30;99.90;;;;;;4215299;28;20313;-81
2022/09/19 08:04:45;;;;;;;22.10;11.37;;;10.30;99.90;;;;;;4199414;28;20760;-83
2022/09/19 08:06:49;;;;;;;24.60;11.83;;;10.30;99.90;;;;;;4200935;28;20238;-80
2022/09/19 08:08:51;;;;;;;27.90;12.67;;;10.30;99.90;;;;;;4201578;28;20210;-79
2022/09/19 08:10:58;;;;;;;23.90;12.33;;;10.50;99.90;;;;;;4204112;28;20194;-79
2022/09/19 08:13:01;;;;;;;26.23;12.30;;;10.30;99.90;;;;;;4220524;28;20275;-79
2022/09/19 08:15:03;;;;;;;25.20;12.37;;;10.30;99.90;;;;;;4216131;28;20209;-83
2022/09/19 08:17:06;;;;;;;25.93;12.00;;;10.30;99.90;;;;;;4192015;28;20289;-80
2022/09/19 08:19:09;;;;;;;23.87;12.33;;;10.30;99.90;;;;;;4221717;28;20202;-79
2022/09/19 08:21:11;;;;;;;20.27;11.30;;;10.30;99.90;;;;;;4201997;28;20250;-81
2022/09/19 08:23:14;;;;;;;21.77;11.30;;;10.30;99.90;;;;;;4205527;28;20300;-79
2022/09/19 08:25:17;;;;;;;20.70;11.37;;;10.30;99.90;;;;;;4213589;28;20207;-79
2022/09/19 08:27:19;;;;;;;17.33;10.13;;;10.50;99.90;;;;;;4221200;28;20202;-79
2022/09/19 08:29:21;;;;;;;20.53;11.90;;;10.40;99.90;;;;;;4202231;28;20208;-79
2022/09/19 08:31:24;;;;;;;19.67;10.93;;;10.50;99.90;;;;;;4210835;28;20204;-83
2022/09/19 08:33:27;;;;;;;21.87;12.23;;;10.50;99.90;;;;;;4196375;28;20596;-80
2022/09/19 08:35:32;;;;;;;23.27;11.20;;;10.40;99.90;;;;;;4197693;28;20226;-81
2022/09/19 08:37:34;;;;;;;18.13;11.37;;;10.50;99.90;;;;;;4214435;28;20210;-81
2022/09/19 08:39:36;;;;;;;19.67;10.27;;;10.50;99.90;;;;;;4222087;28;20294;-80
2022/09/19 08:42:15;;;;;;;18.40;10.47;;;10.50;99.90;;;;;;4220095;28;20229;-80
2022/09/19 08:44:27;;;;;;;16.50;10.30;;;10.50;99.90;;;;;;4219897;28;20206;-80
2022/09/19 08:46:35;;;;;;;17.40;10.30;;;10.50;99.90;;;;;;4212156;28;20211;-80
2022/09/19 08:48:51;;;;;;;19.57;10.93;;;10.60;99.90;;;;;;4214419;28;20253;-80
2022/09/19 08:50:57;;;;;;;20.00;11.30;;;10.50;99.90;;;;;;4217512;28;20236;-81
2022/09/19 08:53:02;;;;;;;23.70;11.10;;;10.70;99.90;;;;;;4136272;28;20772;-81
2022/09/19 08:55:12;;;;;;;24.17;11.13;;;10.70;99.90;;;;;;4220100;28;20212;-86
2022/09/19 08:57:21;;;;;;;19.87;10.20;;;10.80;99.90;;;;;;4200469;28;20212;-81
2022/09/19 08:59:26;;;;;;;19.20;10.77;;;10.80;99.90;;;;;;4200112;28;20196;-80
2022/09/19 09:01:33;;;;;;;16.10;9.77;;;10.90;99.90;;;;;;4219654;28;20210;-80
2022/09/19 09:03:43;;;;;;;19.33;10.17;;;11.00;99.90;;;;;;4112019;28;20241;-84
2022/09/19 09:05:52;;;;;;;15.93;9.93;;;10.90;99.90;;;;;;4200982;28;20246;-83
2022/09/19 09:07:59;;;;;;;13.20;8.83;;;10.90;99.90;;;;;;4200379;28;20272;-80
2022/09/19 09:10:19;;;;;;;16.33;8.63;;;11.00;99.90;;;;;;4195135;28;20257;-80
2022/09/19 09:12:32;;;;;;;17.63;9.53;;;11.00;99.90;;;;;;4197314;28;20243;-82
2022/09/19 09:14:48;;;;;;;12.83;9.17;;;11.10;99.90;;;;;;4213918;28;20546;-81
2022/09/19 09:17:14;;;;;;;15.03;9.40;;;11.00;99.90;;;;;;4199588;28;20234;-80
2022/09/19 09:19:35;;;;;;;12.43;8.33;;;11.10;99.90;;;;;;4212466;28;20887;-80
2022/09/19 09:21:45;;;;;;;14.30;9.53;;;11.10;99.90;;;;;;4221023;28;20278;-81
2022/09/19 09:23:51;;;;;;;13.60;8.30;;;11.20;99.90;;;;;;4219882;28;20206;-80
2022/09/19 09:26:00;;;;;;;11.43;7.83;;;11.30;99.90;;;;;;4219059;28;20211;-80
2022/09/19 09:28:07;;;;;;;13.60;7.77;;;11.30;99.90;;;;;;4218962;28;20203;-81
2022/09/19 09:30:16;;;;;;;13.30;8.17;;;11.40;99.90;;;;;;4223105;28;20196;-80
2022/09/19 09:32:25;;;;;;;12.70;8.30;;;11.40;99.90;;;;;;4204394;28;20242;-83
2022/09/19 09:34:35;;;;;;;14.40;8.33;;;11.50;99.90;;;;;;4220890;28;20202;-80
2022/09/19 09:36:42;;;;;;;11.27;8.33;;;11.50;99.90;;;;;;4223442;28;20851;-84
2022/09/19 09:38:50;;;;;;;14.47;8.77;;;11.60;99.90;;;;;;4197355;28;20217;-81
2022/09/19 09:43:17;;;;;;;14.27;8.87;;;11.50;99.90;;;;;;4218506;28;20671;-82
2022/09/19 09:45:26;;;;;;;15.53;8.93;;;11.50;99.90;;;;;;4201126;28;20220;-82
2022/09/19 09:47:41;;;;;;;13.80;8.33;;;11.50;99.90;;;;;;4200382;28;20207;-84
2022/09/19 09:49:44;;;;;;;13.20;8.50;;;11.50;99.90;;;;;;4214446;28;20211;-83
2022/09/19 09:51:55;;;;;;;12.43;8.20;;;11.40;99.90;;;;;;4197581;28;20226;-82
2022/09/19 09:56:44;;;;;;;13.20;7.80;;;11.40;99.90;;;;;;4213170;28;20205;-83
2022/09/19 09:58:54;;;;;;;13.40;7.27;;;11.30;99.90;;;;;;4204927;28;20206;-83
2022/09/19 10:03:36;;;;;;;11.93;7.27;;;11.10;99.90;;;;;;4218149;28;20276;-83
2022/09/19 10:05:49;;;;;;;11.13;6.50;;;11.10;99.90;;;;;;4218688;28;20202;-82
2022/09/19 10:07:58;;;;;;;9.27;6.03;;;11.10;99.90;;;;;;4218745;28;20204;-82
2022/09/19 10:10:13;;;;;;;8.03;5.40;;;11.10;99.90;;;;;;4215671;28;20199;-82
2022/09/19 10:12:23;;;;;;;7.50;5.10;;;11.10;99.90;;;;;;4220509;28;20255;-82
2022/09/19 10:14:28;;;;;;;7.27;4.90;;;11.10;99.90;;;;;;4220095;28;20206;-82
2022/09/19 10:16:32;;;;;;;9.03;5.20;;;11.10;99.90;;;;;;4199501;28;20726;-81
2022/09/19 10:18:41;;;;;;;8.53;5.57;;;11.10;99.90;;;;;;4218391;28;20210;-82
2022/09/19 10:20:49;;;;;;;12.27;7.33;;;11.30;99.90;;;;;;4217100;28;20211;-82
2022/09/19 10:22:51;;;;;;;14.30;8.30;;;11.30;99.90;;;;;;4201324;28;20329;-86
2022/09/19 10:24:55;;;;;;;11.17;7.70;;;11.40;99.90;;;;;;4218251;28;20210;-84
2022/09/19 10:27:00;;;;;;;13.97;9.10;;;11.50;99.90;;;;;;4200244;28;20207;-83
2022/09/19 10:29:03;;;;;;;15.90;9.40;;;11.60;99.90;;;;;;4215874;28;20231;-82
2022/09/19 10:31:07;;;;;;;13.90;8.87;;;11.70;99.90;;;;;;4222810;28;20238;-84
2022/09/19 10:35:29;;;;;;;17.07;9.87;;;11.90;99.90;;;;;;4146939;28;20229;-84
2022/09/19 10:37:33;;;;;;;15.07;9.27;;;12.00;99.90;;;;;;4125731;28;20284;-84
2022/09/19 10:39:44;;;;;;;15.63;9.13;;;12.00;99.90;;;;;;4126608;28;20213;-84
2022/09/19 10:41:46;;;;;;;15.33;8.97;;;12.20;99.90;;;;;;4142903;28;20241;-84
2022/09/19 10:43:51;;;;;;;12.87;8.70;;;12.20;99.90;;;;;;4134505;28;20345;-83
2022/09/19 10:45:53;;;;;;;14.57;8.60;;;12.20;99.90;;;;;;4158963;28;20230;-84
2022/09/19 10:48:00;;;;;;;13.87;7.77;;;12.30;99.90;;;;;;4132940;28;20232;-82
2022/09/19 10:50:05;;;;;;;13.40;7.87;;;12.30;99.90;;;;;;4128558;28;20266;-83
2022/09/19 10:52:07;;;;;;;10.93;7.53;;;12.40;99.90;;;;;;4144093;28;20211;-85
2022/09/19 10:54:15;;;;;;;10.00;6.80;;;12.40;99.90;;;;;;4126170;28;20232;-84
2022/09/19 10:56:31;;;;;;;8.77;6.27;;;12.40;99.90;;;;;;4128690;28;20233;-83
2022/09/19 10:58:39;;;;;;;11.90;7.00;;;12.50;99.90;;;;;;4147922;28;20204;-84
2022/09/19 11:00:52;;;;;;;8.97;6.10;;;12.50;99.90;;;;;;4130948;28;20235;-82
2022/09/19 11:03:03;;;;;;;6.70;5.27;;;12.60;99.90;;;;;;4148786;28;20291;-81
2022/09/19 11:05:09;;;;;;;9.20;4.97;;;12.70;99.90;;;;;;4213129;28;20228;-80
2022/09/19 11:07:17;;;;;;;6.33;4.17;;;12.80;99.90;;;;;;4147516;28;20212;-81